Flight Track Log - Related Links

Times and Time Zones

All times are in EDT time to prevent confusion due to time zone crossing. See the SWA492 flight status page for this flight to view local times or setup timezone preferences in your user account.

Time Position Orientation Groundspeed Altitude Reporting Facility
EDT Latitude Longitude Course Direction KTS MPH feet Rate Location/Type
Sun 08:38:56 AM 41.8000 -87.7833 21° North 175 201 2,000  Level Chicago TRACON
Sun 08:39:34 AM 41.8386 -87.7631 21° North 198 228 3,300 1,879 Climbing Chicago Center
Sun 08:40:35 AM 41.8447 -87.6758 85° East 235 270 5,100 1,574 Climbing Chicago Center
Sun 08:41:36 AM 41.8528 -87.5744 84° East 257 296 6,500 2,634 Climbing Chicago Center
Sun 08:42:38 AM 41.8325 -87.4753 105° East 271 312 10,500 3,463 Climbing Chicago Center
Sun 08:43:39 AM 41.8128 -87.3675 104° East 295 339 13,600 2,683 Climbing Chicago Center
Sun 08:44:41 AM 41.7922 -87.2444 103° East 337 388 16,000 2,585 Climbing Chicago Center
Sun 08:45:42 AM 41.7683 -87.1069 103° East 375 432 18,900 3,049 Climbing Chicago Center
Sun 08:46:43 AM 41.7631 -86.9297 92° East 404 465 22,200 2,732 Climbing Chicago Center
Sun 08:47:45 AM 41.7656 -86.7747 89° East 417 480 24,500 2,146 Climbing Chicago Center
Sun 08:48:46 AM 41.7661 -86.6169 90° East 434 499 26,600 2,000 Climbing Chicago Center
Sun 08:49:48 AM 41.7669 -86.4506 90° East 448 516 28,600 1,854 Climbing Chicago Center
Sun 08:50:49 AM 41.7736 -86.2781 87° East 464 534 30,400 1,820 Climbing Chicago Center
Sun 08:51:50 AM 41.8047 -86.1053 76° East 471 542 32,300 2,000 Climbing Chicago Center
Sun 08:52:52 AM 41.8339 -85.9367 77° East 470 541 34,500 1,902 Climbing Chicago Center
Sun 08:53:53 AM 41.8631 -85.7700 77° East 462 532 36,200 1,317 Climbing Chicago Center
Sun 08:54:55 AM 41.8908 -85.5997 78° East 462 532 37,200 1,024 Climbing Chicago Center
Sun 08:55:56 AM 41.9203 -85.4250 77° East 472 543 38,300 878 Climbing Chicago Center
Sun 08:56:58 AM 41.9514 -85.2194 78° East 464 534 39,000 341 Climbing Chicago Center
Sun 08:57:59 AM 41.9517 -85.0442 90° East 465 535 39,000  Level Chicago Center
Sun 08:59:01 AM 41.9508 -84.8733 90° East 463 533 39,000  Level Chicago Center
Sun 09:00:02 AM 41.9503 -84.6978 90° East 468 539 39,000  Level Chicago Center
Sun 09:01:04 AM 41.9733 -84.5194 80° East 468 539 39,000  Level Chicago Center
Sun 09:02:05 AM 41.9942 -84.3475 81° East 469 540 39,000  Level Chicago Center
Sun 09:03:07 AM 42.0153 -84.1750 81° East 469 540 39,000  Level Chicago Center
Sun 09:04:08 AM 42.0356 -84.0006 81° East 472 543 39,000  Level Chicago Center
Sun 09:05:19 AM 42.0572 -83.7769 82° East 465 535 39,000  Level Cleveland Center
Sun 09:06:19 AM 42.0767 -83.6017 81° East 470 541 39,000  Level Cleveland Center
Sun 09:07:19 AM 42.0953 -83.4458 81° East 470 541 39,000  Level Cleveland Center
Sun 09:08:19 AM 42.1161 -83.2706 81° East 464 534 39,000  Level Cleveland Center
Sun 09:09:19 AM 42.1325 -83.0919 83° East 464 534 39,000  Level Cleveland Center
Sun 09:10:19 AM 42.1531 -82.9164 81° East 464 534 39,000  Level Cleveland Center
Sun 09:11:19 AM 42.1711 -82.7433 82° East 464 534 39,000  Level Cleveland Center
Sun 09:12:19 AM 42.1889 -82.5672 82° East 464 534 39,000  Level Cleveland Center
Sun 09:13:19 AM 42.2064 -82.3911 82° East 464 534 39,000  Level Cleveland Center
Sun 09:14:19 AM 42.2256 -82.2122 82° East 464 534 39,000  Level Cleveland Center
Sun 09:15:19 AM 42.2469 -82.0164 82° East 470 541 39,000  Level Cleveland Center
Sun 09:16:19 AM 42.2636 -81.8400 83° East 475 547 39,000  Level Cleveland Center
Sun 09:17:19 AM 42.2778 -81.6775 83° East 480 552 39,000  Level Cleveland Center
Sun 09:18:19 AM 42.2939 -81.4953 83° East 480 552 39,000  Level Cleveland Center
Sun 09:19:19 AM 42.3119 -81.3161 82° East 475 547 39,000  Level Cleveland Center
Sun 09:20:19 AM 42.3275 -81.1392 83° East 480 552 39,000  Level Cleveland Center
Sun 09:21:19 AM 42.3450 -80.9597 82° East 480 552 39,000  Level Cleveland Center
Sun 09:22:19 AM 42.3600 -80.7603 84° East 480 552 39,000  Level Cleveland Center
Sun 09:23:19 AM 42.3747 -80.5803 84° East 480 552 39,000  Level Cleveland Center
Sun 09:24:19 AM 42.3914 -80.4033 83° East 480 552 39,000  Level Cleveland Center
Sun 09:25:19 AM 42.4056 -80.2175 84° East 485 558 39,000  Level Cleveland Center
Sun 09:26:19 AM 42.4214 -80.0375 83° East 480 552 39,000  Level Cleveland Center
Sun 09:27:19 AM 42.4331 -79.8772 84° East 480 552 39,000  Level Cleveland Center
Sun 09:28:19 AM 42.4506 -79.6911 83° East 480 552 39,000  Level Cleveland Center
Sun 09:29:19 AM 42.4656 -79.4883 84° East 480 552 39,000  Level Cleveland Center
Sun 09:30:19 AM 42.4761 -79.3022 86° East 485 558 39,000  Level Cleveland Center
Sun 09:31:19 AM 42.4925 -79.1189 83° East 485 558 39,000  Level Cleveland Center
Sun 09:32:19 AM 42.5047 -78.9300 85° East 490 564 39,000  Level Cleveland Center
Sun 09:33:19 AM 42.5186 -78.7436 84° East 495 570 39,000  Level Cleveland Center
Sun 09:34:19 AM 42.5319 -78.5572 84° East 495 570 39,000  Level Cleveland Center
Sun 09:35:19 AM 42.5431 -78.3653 85° East 502 578 39,000  Level Cleveland Center
Sun 09:36:19 AM 42.5539 -78.1789 85° East 502 578 39,000  Level Cleveland Center
Sun 09:37:19 AM 42.5647 -77.9953 85° East 497 572 39,000  Level Cleveland Center
Sun 09:38:19 AM 42.5736 -77.8483 85° East 497 572 39,000  Level Cleveland Center
Sun 09:39:19 AM 42.5894 -77.6417 84° East 497 572 39,000  Level Cleveland Center
Sun 09:40:59 AM 42.6058 -77.3269 86° East 493 567 39,000  Level Boston Center
Sun 09:41:59 AM 42.6158 -77.1414 86° East 493 567 39,000  Level Boston Center
Sun 09:42:59 AM 42.6253 -76.9556 86° East 496 571 39,000  Level Boston Center
Sun 09:43:59 AM 42.6347 -76.7672 86° East 496 571 39,000  Level Boston Center
Sun 09:44:59 AM 42.6447 -76.5561 86° East 501 577 39,000  Level Boston Center
Sun 09:45:59 AM 42.6522 -76.4069 86° East 501 577 39,000  Level Boston Center
Sun 09:46:59 AM 42.6639 -76.1817 86° East 501 577 39,000  Level Boston Center
Sun 09:48:11 AM 42.6733 -75.9533 87° East 501 577 39,000  Level Boston Center
Sun 09:49:11 AM 42.6811 -75.7644 87° East 495 570 39,000  Level Boston Center
Sun 09:50:11 AM 42.6886 -75.5756 87° East 495 570 39,000  Level Boston Center
Sun 09:51:11 AM 42.6958 -75.3811 87° East 501 577 39,000  Level Boston Center
Sun 09:52:11 AM 42.7028 -75.1919 87° East 501 577 39,000  Level Boston Center
Sun 09:53:11 AM 42.7114 -74.9975 86° East 501 577 39,000  Level Boston Center
Sun 09:54:11 AM 42.7156 -74.8083 88° East 501 577 39,000 -900 Level Boston Center
Sun 09:55:11 AM 42.7233 -74.6247 87° East 491 565 37,200 -1,000 Descending Boston Center
Sun 09:56:11 AM 42.7289 -74.4414 88° East 485 558 37,000 -100 Descending Boston Center
Sun 09:57:11 AM 42.7339 -74.2606 88° East 485 558 37,000  Level Boston Center
Sun 09:58:11 AM 42.7389 -74.0742 88° East 485 558 37,000  Level Boston Center
Sun 09:59:11 AM 42.7433 -73.8933 88° East 480 552 37,000 -50 Level Boston Center
Sun 10:00:11 AM 42.7411 -73.7433 91° East 480 552 36,900 -1,300 Descending Boston Center
Sun 10:01:11 AM 42.7203 -73.5308 98° East 475 547 34,400 -2,650 Descending Boston Center
Sun 10:02:11 AM 42.7011 -73.3525 98° East 480 552 31,600 -1,850 Descending Boston Center
Sun 10:03:11 AM 42.6814 -73.1658 98° East 486 559 30,700 -950 Descending Boston Center
Sun 10:04:11 AM 42.6597 -72.9708 99° East 486 559 29,700 -1,500 Descending Boston Center
Sun 10:05:11 AM 42.6375 -72.7900 99° East 504 580 27,700 -1,900 Descending Boston Center
Sun 10:06:11 AM 42.6211 -72.6517 99° East 497 572 25,900 -2,200 Descending Boston Center
Sun 10:07:11 AM 42.5983 -72.4625 99° East 472 543 23,300 -2,550 Descending Boston Center
Sun 10:08:11 AM 42.5794 -72.3189 100° East 472 543 20,800 -2,700 Descending Boston Center
Sun 10:09:11 AM 42.5542 -72.1244 100° East 448 516 17,900 -2,900 Descending Boston Center
Sun 10:10:11 AM 42.5347 -71.9528 99° East 433 498 15,000 -2,400 Descending Boston Center
Sun 10:11:11 AM 42.5217 -71.8147 97° East 422 486 13,100 -1,850 Descending Boston Center
Sun 10:12:11 AM 42.5081 -71.6544 97° East 401 461 11,300 -1,077 Descending Boston Center
Sun 10:13:08 AM 42.5000 -71.5167 94° East 345 397 11,000 -378 Descending KA90
Sun 10:14:02 AM 42.4833 -71.4167 103° East 333 383 10,600 -842 Descending KA90
Sun 10:15:02 AM 42.4833 -71.3000 90° East 320 368 9,400 -1,250 Descending KA90
Sun 10:16:02 AM 42.4667 -71.1833 101° East 309 356 8,100 -1,096 Descending KA90
Sun 10:16:57 AM 42.4500 -71.0833 103° East 295 339 7,300 -550 Descending KA90
Sun 10:18:02 AM 42.4500 -70.9667 90° East 266 306 7,000 -576 Descending KA90
Sun 10:19:02 AM 42.4500 -70.8667 90° East 254 292 6,100 -1,100 Descending KA90
Sun 10:20:02 AM 42.4667 -70.7833 75° East 243 280 4,800 -1,250 Descending KA90
Sun 10:21:02 AM 42.4167 -70.7333 144° Southeast 232 267 3,600 -977 Descending KA90
Sun 10:22:11 AM 42.3947 -70.8039 247° West 93 107 2,700 -884 Descending Boston Center
Sun 10:23:11 AM 42.3833 -70.8717 257° West 129 148 1,700 -864 Descending Boston Center
Sun 10:24:09 AM 42.3667 -70.9167 243° Southwest 137 158 1,000 -661 Descending KA90
Sun 10:25:09 AM 42.3667 -70.9667 270° West 135 155 400 -600 Descending KA90
Sun 10:27:00 AM 42.3500 -71.0000 North  Level FlightAware Approximate

Login

Don't have an account? Register now (free) for customized features, flight alerts, and more!